Time;durP1;ratioP1;P1;durP2;ratioP2;P2;SDS_P1;SDS_P2;PMS_P1;PMS_P2;Temp;Humidity;BMP_temperature;BMP_pressure;BME280_temperature;BME280_humidity;BME280_pressure;Samples;Min_cycle;Max_cycle;Signal;HPM_P1;HPM_P2
2022/03/30 00:01:16;;;;;;;40.08;13.50;;;;;;;;;;5107403;28;20047;-62
2022/03/30 00:03:42;;;;;;;28.40;12.55;;;;;;;;;;5107382;28;20044;-62
2022/03/30 00:06:09;;;;;;;26.83;13.00;;;;;;;;;;5106809;28;20048;-62
2022/03/30 00:08:35;;;;;;;28.88;13.93;;;;;;;;;;5089762;28;20424;-62
2022/03/30 00:11:01;;;;;;;29.58;12.90;;;;;;;;;;5087123;28;20040;-62
2022/03/30 00:13:28;;;;;;;36.75;13.63;;;;;;;;;;5087226;28;20044;-62
2022/03/30 00:15:54;;;;;;;20.70;12.13;;;;;;;;;;5086545;28;20051;-61
2022/03/30 00:18:20;;;;;;;33.78;13.38;;;;;;;;;;5100763;28;20097;-61
2022/03/30 00:20:46;;;;;;;26.52;13.07;;;;;;;;;;5107019;28;20048;-61
2022/03/30 00:23:13;;;;;;;27.95;14.07;;;;;;;;;;5106296;28;20131;-61
2022/03/30 00:25:39;;;;;;;26.65;12.68;;;;;;;;;;5107364;28;20096;-61
2022/03/30 00:28:05;;;;;;;29.25;12.07;;;;;;;;;;5094777;28;20062;-61
2022/03/30 00:30:32;;;;;;;31.33;14.30;;;;;;;;;;5095838;28;20050;-61
2022/03/30 00:32:58;;;;;;;30.63;13.00;;;;;;;;;;5106675;28;20081;-61
2022/03/30 00:35:24;;;;;;;32.92;14.25;;;;;;;;;;5105067;28;20055;-61
2022/03/30 00:37:50;;;;;;;32.85;13.65;;;;;;;;;;5105747;28;20591;-61
2022/03/30 00:40:17;;;;;;;30.63;13.00;;;;;;;;;;5107003;28;20115;-62
2022/03/30 00:42:44;;;;;;;33.42;13.70;;;;;;;;;;5106398;28;20079;-61
2022/03/30 00:45:14;;;;;;;29.92;13.00;;;;;;;;;;5095534;28;20040;-61
2022/03/30 00:47:41;;;;;;;31.10;13.18;;;;;;;;;;5085985;28;20104;-61
2022/03/30 00:50:08;;;;;;;31.63;12.60;;;;;;;;;;5086351;28;20083;-61
2022/03/30 00:52:34;;;;;;;35.25;13.50;;;;;;;;;;5085359;28;20415;-61
2022/03/30 00:55:01;;;;;;;29.55;12.75;;;;;;;;;;5095020;28;20079;-61
2022/03/30 00:57:28;;;;;;;25.20;12.68;;;;;;;;;;5105776;28;20048;-61
2022/03/30 00:59:54;;;;;;;28.65;12.70;;;;;;;;;;5106291;28;20100;-62
2022/03/30 01:02:21;;;;;;;30.25;12.52;;;;;;;;;;5106275;28;20044;-61
2022/03/30 01:04:47;;;;;;;28.83;13.27;;;;;;;;;;5104522;28;20047;-61
2022/03/30 01:07:14;;;;;;;40.53;14.38;;;;;;;;;;5104297;28;20205;-61
2022/03/30 01:09:40;;;;;;;32.33;14.93;;;;;;;;;;5105778;28;20115;-61
2022/03/30 01:12:07;;;;;;;34.45;15.55;;;;;;;;;;5106012;28;20052;-61
2022/03/30 01:14:34;;;;;;;35.03;14.52;;;;;;;;;;5100998;28;20044;-62
2022/03/30 01:17:00;;;;;;;32.35;14.60;;;;;;;;;;5085802;28;20032;-63
2022/03/30 01:19:30;;;;;;;36.75;15.18;;;;;;;;;;5087593;28;20054;-62
2022/03/30 01:21:56;;;;;;;34.63;15.23;;;;;;;;;;5104927;28;20040;-63
2022/03/30 01:24:22;;;;;;;29.90;14.63;;;;;;;;;;5103043;28;20094;-62
2022/03/30 01:26:48;;;;;;;41.92;15.32;;;;;;;;;;5086189;28;20044;-61
2022/03/30 01:34:44;;;;;;;31.02;14.43;;;;;;;;;;5090768;28;20074;-61
2022/03/30 01:37:12;;;;;;;36.38;16.40;;;;;;;;;;5104615;28;20131;-61
2022/03/30 01:39:38;;;;;;;;;;;;;;;;;;5106109;28;20048;-61
2022/03/30 01:42:04;;;;;;;35.92;16.52;;;;;;;;;;5105623;28;20002;-62
2022/03/30 01:44:31;;;;;;;33.55;16.10;;;;;;;;;;5101744;28;20154;-62
2022/03/30 01:46:57;;;;;;;37.42;17.48;;;;;;;;;;5084958;28;20047;-62
2022/03/30 01:49:24;;;;;;;40.60;18.13;;;;;;;;;;5085100;28;20040;-61
2022/03/30 01:51:50;;;;;;;38.17;15.50;;;;;;;;;;5084032;28;20050;-62
2022/03/30 01:54:17;;;;;;;47.42;16.30;;;;;;;;;;5086483;28;20099;-61
2022/03/30 01:56:43;;;;;;;32.63;16.83;;;;;;;;;;5105285;28;20067;-62
2022/03/30 01:59:09;;;;;;;43.35;17.15;;;;;;;;;;5105366;28;20107;-62
2022/03/30 02:01:35;;;;;;;32.28;16.55;;;;;;;;;;5104958;28;20050;-62
2022/03/30 02:04:01;;;;;;;50.17;18.05;;;;;;;;;;5105268;28;20050;-62
2022/03/30 02:06:27;;;;;;;30.25;17.75;;;;;;;;;;5082863;28;20074;-62
2022/03/30 02:08:53;;;;;;;43.67;18.88;;;;;;;;;;5088782;28;20100;-62
2022/03/30 02:11:21;;;;;;;35.50;16.00;;;;;;;;;;5104756;28;20528;-63
2022/03/30 02:13:47;;;;;;;38.17;18.13;;;;;;;;;;5105125;28;20044;-63
2022/03/30 02:16:13;;;;;;;46.58;17.67;;;;;;;;;;5086897;28;20048;-63
2022/03/30 02:18:40;;;;;;;40.53;18.55;;;;;;;;;;5084558;28;20135;-63
2022/03/30 02:21:06;;;;;;;40.28;17.05;;;;;;;;;;5082849;28;20045;-63
2022/03/30 02:23:32;;;;;;;35.10;16.98;;;;;;;;;;5084895;28;20056;-63
2022/03/30 02:25:58;;;;;;;29.65;14.50;;;;;;;;;;5084976;28;20127;-63
2022/03/30 02:28:24;;;;;;;29.60;12.45;;;;;;;;;;5084459;28;20037;-63
2022/03/30 02:30:50;;;;;;;18.67;10.48;;;;;;;;;;5084210;28;20044;-63
2022/03/30 02:33:16;;;;;;;11.50;5.13;;;;;;;;;;5084579;28;20090;-63
2022/03/30 02:35:43;;;;;;;9.50;4.38;;;;;;;;;;5100621;28;20126;-63
2022/03/30 02:38:09;;;;;;;10.07;3.42;;;;;;;;;;5104081;28;20044;-63
2022/03/30 02:40:35;;;;;;;10.43;2.53;;;;;;;;;;5104446;28;20115;-62
2022/03/30 02:43:01;;;;;;;3.78;1.67;;;;;;;;;;5096212;28;20100;-63
2022/03/30 02:45:27;;;;;;;4.72;1.55;;;;;;;;;;5090714;28;20060;-63
2022/03/30 02:50:39;;;;;;;7.43;1.55;;;;;;;;;;5084197;28;20051;-63
2022/03/30 02:53:05;;;;;;;6.20;1.50;;;;;;;;;;5090511;28;20055;-62
2022/03/30 02:55:31;;;;;;;4.65;1.60;;;;;;;;;;5104230;28;20051;-63
2022/03/30 02:57:57;;;;;;;4.13;2.08;;;;;;;;;;5104052;28;20051;-63
2022/03/30 03:00:23;;;;;;;4.72;1.65;;;;;;;;;;5104148;28;20045;-63
2022/03/30 03:02:49;;;;;;;5.70;1.58;;;;;;;;;;5102376;28;20048;-63
2022/03/30 03:05:15;;;;;;;5.15;1.83;;;;;;;;;;5104350;28;20111;-63
2022/03/30 03:07:41;;;;;;;2.83;1.42;;;;;;;;;;5103737;28;20040;-63
2022/03/30 03:10:09;;;;;;;6.10;1.25;;;;;;;;;;5104076;28;20075;-63
2022/03/30 03:12:35;;;;;;;;;;;;;;;;;;5104523;28;20050;-63
2022/03/30 03:15:01;;;;;;;4.75;1.00;;;;;;;;;;5085319;28;19920;-63
2022/03/30 03:17:27;;;;;;;5.10;1.67;;;;;;;;;;5083763;28;20131;-63
2022/03/30 03:19:53;;;;;;;2.70;0.98;;;;;;;;;;5084413;28;20120;-63
2022/03/30 03:22:20;;;;;;;1.00;0.80;;;;;;;;;;5081679;28;20123;-63
2022/03/30 03:24:46;;;;;;;3.05;0.80;;;;;;;;;;5099664;28;20506;-63
2022/03/30 03:27:12;;;;;;;3.97;0.90;;;;;;;;;;5103915;28;20052;-63
2022/03/30 03:29:38;;;;;;;3.28;1.00;;;;;;;;;;5104131;28;20044;-63
2022/03/30 03:32:05;;;;;;;0.70;0.70;;;;;;;;;;5103688;28;20070;-63
2022/03/30 03:34:31;;;;;;;5.05;1.10;;;;;;;;;;5094078;28;20098;-62
2022/03/30 03:36:57;;;;;;;2.47;1.27;;;;;;;;;;5086875;28;20104;-63
2022/03/30 03:39:23;;;;;;;2.75;0.82;;;;;;;;;;5087691;28;20111;-63
2022/03/30 03:41:49;;;;;;;2.05;0.90;;;;;;;;;;5087567;28;20515;-63
2022/03/30 03:44:16;;;;;;;1.67;0.90;;;;;;;;;;5098961;28;20052;-63
2022/03/30 03:46:42;;;;;;;4.25;1.00;;;;;;;;;;5107479;28;20127;-63
2022/03/30 03:49:08;;;;;;;2.55;0.60;;;;;;;;;;5108158;28;20557;-63
2022/03/30 03:51:34;;;;;;;1.05;0.60;;;;;;;;;;5106571;28;20040;-63
2022/03/30 03:54:00;;;;;;;2.42;0.70;;;;;;;;;;5103842;28;20047;-63
2022/03/30 03:56:27;;;;;;;1.55;0.80;;;;;;;;;;5107550;28;20052;-63
2022/03/30 03:58:54;;;;;;;0.95;0.63;;;;;;;;;;5106117;28;20086;-63
2022/03/30 04:01:20;;;;;;;0.90;0.70;;;;;;;;;;5107603;28;20048;-63
2022/03/30 04:03:46;;;;;;;0.93;0.68;;;;;;;;;;5103710;28;20040;-63
2022/03/30 04:06:12;;;;;;;1.17;0.43;;;;;;;;;;5086284;28;20578;-63
2022/03/30 04:08:38;;;;;;;1.48;0.70;;;;;;;;;;5087019;28;20053;-63
2022/03/30 04:11:06;;;;;;;0.75;0.60;;;;;;;;;;5086890;28;20213;-63
2022/03/30 04:13:32;;;;;;;2.15;0.60;;;;;;;;;;5101346;28;20108;-63
2022/03/30 04:15:58;;;;;;;2.80;0.90;;;;;;;;;;5107331;28;20044;-63
2022/03/30 04:18:24;;;;;;;1.60;0.70;;;;;;;;;;5107001;28;20108;-63
2022/03/30 04:20:50;;;;;;;0.70;0.63;;;;;;;;;;5107047;28;20044;-63
2022/03/30 04:23:16;;;;;;;1.58;0.70;;;;;;;;;;5094892;28;20052;-62
2022/03/30 04:25:43;;;;;;;1.83;1.13;;;;;;;;;;5086895;28;20049;-63
2022/03/30 04:28:09;;;;;;;3.35;1.02;;;;;;;;;;5086615;28;20165;-62
2022/03/30 04:30:35;;;;;;;1.60;1.00;;;;;;;;;;5088365;28;20071;-63
2022/03/30 04:33:01;;;;;;;0.70;0.70;;;;;;;;;;5106814;28;20052;-63
2022/03/30 04:35:27;;;;;;;4.40;1.40;;;;;;;;;;5106937;28;20127;-63
2022/03/30 04:37:54;;;;;;;3.45;1.38;;;;;;;;;;5105894;28;20048;-63
2022/03/30 04:40:22;;;;;;;3.78;1.50;;;;;;;;;;5106432;28;20051;-63
2022/03/30 04:42:48;;;;;;;3.53;1.48;;;;;;;;;;5086625;28;20072;-63
2022/03/30 04:45:14;;;;;;;6.70;1.60;;;;;;;;;;5085547;28;20048;-63
2022/03/30 04:47:40;;;;;;;8.15;1.30;;;;;;;;;;5086200;28;20068;-62
2022/03/30 04:50:06;;;;;;;2.17;1.48;;;;;;;;;;5086332;28;20042;-62
2022/03/30 04:52:32;;;;;;;5.93;1.67;;;;;;;;;;5102569;28;20052;-62
2022/03/30 04:54:59;;;;;;;4.93;2.00;;;;;;;;;;5106444;28;20059;-62
2022/03/30 04:57:27;;;;;;;3.83;1.40;;;;;;;;;;5106371;28;20044;-62
2022/03/30 04:59:53;;;;;;;2.88;1.50;;;;;;;;;;5106204;28;20099;-62
2022/03/30 05:02:19;;;;;;;4.72;1.50;;;;;;;;;;5091178;28;20088;-62
2022/03/30 05:04:45;;;;;;;4.28;1.50;;;;;;;;;;5115392;28;20488;-63
2022/03/30 05:07:13;;;;;;;4.53;1.45;;;;;;;;;;5085151;28;20447;-62
2022/03/30 05:09:39;;;;;;;5.28;1.52;;;;;;;;;;5085666;28;20067;-62
2022/03/30 05:12:05;;;;;;;4.47;2.33;;;;;;;;;;5095456;28;20044;-63
2022/03/30 05:14:32;;;;;;;5.35;1.90;;;;;;;;;;5105972;28;20086;-62
2022/03/30 05:16:59;;;;;;;5.68;1.60;;;;;;;;;;5105856;28;20040;-63
2022/03/30 05:19:25;;;;;;;6.25;1.80;;;;;;;;;;5106060;28;20044;-63
2022/03/30 05:21:51;;;;;;;3.60;2.20;;;;;;;;;;5097667;28;20424;-64
2022/03/30 05:24:17;;;;;;;3.08;1.95;;;;;;;;;;5085713;28;20079;-63
2022/03/30 05:26:44;;;;;;;9.50;2.30;;;;;;;;;;5084612;28;20098;-63
2022/03/30 05:29:10;;;;;;;6.35;2.03;;;;;;;;;;5093649;28;20585;-63
2022/03/30 05:31:36;;;;;;;4.95;2.20;;;;;;;;;;5103916;28;20107;-63
2022/03/30 05:34:02;;;;;;;6.68;2.30;;;;;;;;;;5100047;28;20103;-63
2022/03/30 05:36:29;;;;;;;4.50;1.98;;;;;;;;;;5095766;28;20043;-64
2022/03/30 05:38:55;;;;;;;5.32;2.15;;;;;;;;;;5095656;28;20484;-63
2022/03/30 05:41:21;;;;;;;3.92;2.30;;;;;;;;;;5092067;28;20087;-63
2022/03/30 05:43:47;;;;;;;3.83;2.15;;;;;;;;;;5101892;28;20047;-63
2022/03/30 05:46:13;;;;;;;3.33;1.75;;;;;;;;;;5092158;28;20052;-63
2022/03/30 05:48:39;;;;;;;4.25;2.08;;;;;;;;;;5100047;28;20052;-63
2022/03/30 05:51:06;;;;;;;6.90;2.10;;;;;;;;;;5092635;28;22033;-63
2022/03/30 05:53:32;;;;;;;10.02;2.50;;;;;;;;;;5105410;28;20040;-63
2022/03/30 05:55:58;;;;;;;4.45;2.75;;;;;;;;;;5103579;28;20101;-63
2022/03/30 05:58:24;;;;;;;6.15;2.20;;;;;;;;;;5107672;28;20052;-63
2022/03/30 06:00:50;;;;;;;8.10;2.42;;;;;;;;;;5109171;28;20471;-64
2022/03/30 06:03:17;;;;;;;8.48;2.20;;;;;;;;;;5104462;28;20047;-63
2022/03/30 06:05:43;;;;;;;5.25;2.33;;;;;;;;;;5103897;28;20062;-63
2022/03/30 06:08:09;;;;;;;6.85;2.08;;;;;;;;;;5104185;28;20122;-63
2022/03/30 06:10:36;;;;;;;12.80;3.33;;;;;;;;;;5097266;28;20087;-63
2022/03/30 06:13:03;;;;;;;5.75;2.75;;;;;;;;;;5085034;28;20055;-63
2022/03/30 06:15:30;;;;;;;9.18;3.13;;;;;;;;;;5086666;28;20074;-64
2022/03/30 06:17:56;;;;;;;6.78;2.35;;;;;;;;;;5123485;28;20051;-63
2022/03/30 06:20:24;;;;;;;6.97;2.80;;;;;;;;;;5098437;28;20044;-62
2022/03/30 06:22:51;;;;;;;6.72;2.97;;;;;;;;;;5114710;28;20451;-62
2022/03/30 06:25:18;;;;;;;7.30;3.38;;;;;;;;;;5123359;28;20059;-62
2022/03/30 06:27:44;;;;;;;8.85;2.50;;;;;;;;;;5098953;28;20044;-63
2022/03/30 06:30:10;;;;;;;5.57;2.65;;;;;;;;;;5110689;28;20122;-63
2022/03/30 06:32:37;;;;;;;9.43;3.13;;;;;;;;;;5104266;28;20044;-63
2022/03/30 06:35:03;;;;;;;8.55;2.67;;;;;;;;;;5104469;28;20040;-63
2022/03/30 06:37:30;;;;;;;7.85;2.67;;;;;;;;;;5103788;28;20071;-63
2022/03/30 06:39:56;;;;;;;3.05;2.13;;;;;;;;;;5103929;28;20052;-63
2022/03/30 06:42:22;;;;;;;5.35;2.30;;;;;;;;;;5104159;28;20074;-63
2022/03/30 06:44:48;;;;;;;8.65;2.45;;;;;;;;;;5104432;28;20048;-63
2022/03/30 06:47:14;;;;;;;17.65;4.68;;;;;;;;;;5103951;28;20049;-63
2022/03/30 06:49:41;;;;;;;10.32;2.67;;;;;;;;;;5090919;28;20048;-63
2022/03/30 06:52:08;;;;;;;12.50;2.95;;;;;;;;;;5083037;28;20086;-63
2022/03/30 06:54:34;;;;;;;10.43;2.83;;;;;;;;;;5084435;28;20092;-64
2022/03/30 06:57:01;;;;;;;7.72;2.10;;;;;;;;;;5088010;28;20161;-63
2022/03/30 06:59:27;;;;;;;7.60;2.03;;;;;;;;;;5103915;28;20052;-62
2022/03/30 07:01:55;;;;;;;7.78;2.50;;;;;;;;;;5103759;28;20044;-62
2022/03/30 07:04:22;;;;;;;17.65;3.33;;;;;;;;;;5103992;28;20062;-62
2022/03/30 07:12:18;;;;;;;10.55;2.63;;;;;;;;;;5110880;28;20116;-62
2022/03/30 07:14:46;;;;;;;10.48;2.65;;;;;;;;;;5097275;28;20428;-62
2022/03/30 07:17:12;;;;;;;;;;;;;;;;;;5107725;28;20037;-62
2022/03/30 07:19:39;;;;;;;8.07;2.20;;;;;;;;;;5102004;28;19920;-62
2022/03/30 07:22:06;;;;;;;4.03;1.45;;;;;;;;;;5108370;28;20055;-62
2022/03/30 07:24:32;;;;;;;5.38;2.42;;;;;;;;;;5099435;28;20048;-62
2022/03/30 07:26:58;;;;;;;11.43;2.10;;;;;;;;;;5110532;28;20036;-63
2022/03/30 07:29:24;;;;;;;4.93;1.30;;;;;;;;;;5103923;28;20423;-63
2022/03/30 07:31:50;;;;;;;5.32;1.60;;;;;;;;;;5093201;28;20055;-63
2022/03/30 07:34:17;;;;;;;4.53;1.23;;;;;;;;;;5097050;28;20036;-63
2022/03/30 07:36:43;;;;;;;6.30;1.40;;;;;;;;;;5105889;28;20036;-63
2022/03/30 07:39:09;;;;;;;7.07;1.42;;;;;;;;;;5099489;28;20075;-63
2022/03/30 07:41:36;;;;;;;8.88;1.40;;;;;;;;;;5110294;28;20066;-63
2022/03/30 07:44:03;;;;;;;5.07;1.88;;;;;;;;;;5111023;28;20580;-63
2022/03/30 07:46:30;;;;;;;11.13;2.15;;;;;;;;;;5113203;28;20086;-63
2022/03/30 07:48:56;;;;;;;7.50;2.45;;;;;;;;;;5098239;27;20486;-62
2022/03/30 07:51:22;;;;;;;2.90;1.30;;;;;;;;;;5114405;28;20075;-63
2022/03/30 07:53:48;;;;;;;7.43;1.45;;;;;;;;;;5112162;28;20051;-62
2022/03/30 07:56:14;;;;;;;5.22;1.95;;;;;;;;;;5101852;28;20054;-63
2022/03/30 07:58:40;;;;;;;5.85;1.85;;;;;;;;;;5108003;28;20079;-62
2022/03/30 08:01:07;;;;;;;5.75;1.13;;;;;;;;;;5101249;28;20159;-62
2022/03/30 08:03:33;;;;;;;5.38;1.05;;;;;;;;;;5090730;28;20048;-62
2022/03/30 08:06:00;;;;;;;3.97;1.20;;;;;;;;;;5102764;28;20036;-62
2022/03/30 08:08:26;;;;;;;3.95;1.63;;;;;;;;;;5107989;28;20052;-63
2022/03/30 08:10:53;;;;;;;3.17;1.10;;;;;;;;;;5098532;28;20109;-63
2022/03/30 08:13:19;;;;;;;5.40;1.70;;;;;;;;;;5098120;28;20051;-63
2022/03/30 08:15:45;;;;;;;7.20;1.45;;;;;;;;;;5099262;28;20101;-63
2022/03/30 08:18:12;;;;;;;4.78;0.73;;;;;;;;;;5107013;28;20087;-63
2022/03/30 08:23:23;;;;;;;7.38;1.80;;;;;;;;;;5090118;28;20488;-63
2022/03/30 08:25:49;;;;;;;6.40;1.35;;;;;;;;;;5088771;28;20053;-63
2022/03/30 08:28:15;;;;;;;6.18;1.58;;;;;;;;;;5091553;28;20397;-63
2022/03/30 08:30:41;;;;;;;12.85;1.00;;;;;;;;;;5098784;28;20131;-63
2022/03/30 08:33:08;;;;;;;10.93;1.58;;;;;;;;;;5098821;28;20040;-64
2022/03/30 08:35:34;;;;;;;2.85;1.00;;;;;;;;;;5096299;28;20048;-63
2022/03/30 08:38:00;;;;;;;6.65;1.00;;;;;;;;;;5111466;28;20152;-64
2022/03/30 08:40:26;;;;;;;6.50;1.55;;;;;;;;;;5101052;28;20446;-64
2022/03/30 08:42:53;;;;;;;5.05;1.60;;;;;;;;;;5102601;28;20044;-63
2022/03/30 08:45:20;;;;;;;2.42;1.13;;;;;;;;;;5099949;28;20105;-63
2022/03/30 08:47:47;;;;;;;3.75;1.02;;;;;;;;;;5091043;28;20048;-63
2022/03/30 08:50:13;;;;;;;2.55;0.80;;;;;;;;;;5100597;28;20100;-63
2022/03/30 08:52:39;;;;;;;4.25;0.70;;;;;;;;;;5087439;28;20153;-63
2022/03/30 08:55:05;;;;;;;3.45;0.90;;;;;;;;;;5101325;28;20158;-63
2022/03/30 08:57:31;;;;;;;7.18;0.90;;;;;;;;;;5091868;28;20055;-63
2022/03/30 09:00:07;;;;;;;4.35;0.80;;;;;;;;;;5101393;28;20044;-62
2022/03/30 09:02:38;;;;;;;6.97;1.25;;;;;;;;;;5094948;28;20048;-62
2022/03/30 09:05:35;;;;;;;8.27;1.08;;;;;;;;;;5105825;28;20070;-63
2022/03/30 09:08:10;;;;;;;5.13;2.03;;;;;;;;;;5080648;28;20064;-63
2022/03/30 09:10:37;;;;;;;4.30;0.98;;;;;;;;;;5076771;28;20088;-63
2022/03/30 09:13:04;;;;;;;3.45;1.25;;;;;;;;;;5080849;28;20040;-63
2022/03/30 09:15:30;;;;;;;9.40;1.65;;;;;;;;;;5081042;28;20067;-63
2022/03/30 09:17:57;;;;;;;2.33;1.00;;;;;;;;;;5080229;28;20059;-63
2022/03/30 09:20:23;;;;;;;7.07;0.90;;;;;;;;;;5075327;28;20040;-63
2022/03/30 09:22:52;;;;;;;2.15;0.70;;;;;;;;;;5076446;28;20047;-62
2022/03/30 09:25:18;;;;;;;7.18;1.10;;;;;;;;;;5079865;28;20055;-62
2022/03/30 09:27:46;;;;;;;2.60;0.52;;;;;;;;;;5079416;28;20053;-63
2022/03/30 09:30:14;;;;;;;2.40;0.63;;;;;;;;;;5074229;28;20040;-62
2022/03/30 09:32:41;;;;;;;6.57;1.08;;;;;;;;;;5081171;28;20049;-63
2022/03/30 09:35:18;;;;;;;3.65;0.70;;;;;;;;;;5080653;28;20055;-63
2022/03/30 09:37:45;;;;;;;3.80;0.73;;;;;;;;;;5079769;28;20052;-63
2022/03/30 09:40:12;;;;;;;3.72;0.75;;;;;;;;;;5077373;28;20036;-62
2022/03/30 09:42:38;;;;;;;1.65;0.60;;;;;;;;;;5078727;28;20048;-62
2022/03/30 09:45:04;;;;;;;5.03;1.15;;;;;;;;;;5090511;28;20446;-63
2022/03/30 09:47:38;;;;;;;6.88;0.80;;;;;;;;;;5100051;28;20133;-62
2022/03/30 09:50:07;;;;;;;6.63;1.10;;;;;;;;;;5087455;28;20047;-62
2022/03/30 09:52:37;;;;;;;2.97;1.05;;;;;;;;;;5088923;28;20071;-63
2022/03/30 09:55:04;;;;;;;6.15;0.65;;;;;;;;;;5091813;28;20044;-62
2022/03/30 09:57:42;;;;;;;6.05;0.82;;;;;;;;;;5090755;28;20123;-63
2022/03/30 10:00:08;;;;;;;2.90;0.95;;;;;;;;;;5090671;28;20052;-63
2022/03/30 10:02:39;;;;;;;6.18;1.08;;;;;;;;;;5085341;28;20052;-62
2022/03/30 10:05:05;;;;;;;2.88;1.00;;;;;;;;;;5090799;28;20040;-62
2022/03/30 10:07:32;;;;;;;10.80;1.88;;;;;;;;;;5099532;28;20035;-62
2022/03/30 10:09:59;;;;;;;4.72;1.50;;;;;;;;;;5100647;28;20084;-62
2022/03/30 10:12:26;;;;;;;7.63;1.33;;;;;;;;;;5093077;28;20131;-62
2022/03/30 10:14:53;;;;;;;7.72;1.63;;;;;;;;;;5100807;28;20044;-62
2022/03/30 10:17:19;;;;;;;3.97;1.70;;;;;;;;;;5088690;28;20039;-62
2022/03/30 10:19:46;;;;;;;3.10;1.15;;;;;;;;;;5085598;28;20104;-62
2022/03/30 10:22:12;;;;;;;4.90;1.00;;;;;;;;;;5094345;28;20085;-63
2022/03/30 10:24:38;;;;;;;4.68;1.20;;;;;;;;;;5102885;28;20044;-63
2022/03/30 10:27:07;;;;;;;5.93;1.50;;;;;;;;;;5103866;28;20108;-64
2022/03/30 10:29:34;;;;;;;4.78;1.70;;;;;;;;;;5096355;28;20043;-62
2022/03/30 10:32:18;;;;;;;7.78;1.80;;;;;;;;;;5089055;28;20040;-62
2022/03/30 10:35:04;;;;;;;9.70;1.50;;;;;;;;;;5086529;28;20423;-63
2022/03/30 10:37:34;;;;;;;5.13;1.42;;;;;;;;;;5087200;28;20055;-63
2022/03/30 10:40:03;;;;;;;6.30;1.10;;;;;;;;;;5089417;28;20048;-62
2022/03/30 10:42:53;;;;;;;6.53;1.00;;;;;;;;;;5087697;28;20101;-62
2022/03/30 10:45:28;;;;;;;6.53;1.10;;;;;;;;;;5092684;28;21067;-63
2022/03/30 10:48:10;;;;;;;5.35;1.25;;;;;;;;;;5094341;28;20048;-62
2022/03/30 10:50:39;;;;;;;3.65;1.15;;;;;;;;;;5097816;28;20056;-62
2022/03/30 10:53:25;;;;;;;3.78;0.70;;;;;;;;;;5095894;28;20048;-62
2022/03/30 10:55:51;;;;;;;8.45;1.45;;;;;;;;;;5098944;28;20488;-62
2022/03/30 10:58:20;;;;;;;2.03;0.82;;;;;;;;;;5096543;28;20389;-62
2022/03/30 11:00:47;;;;;;;2.72;0.90;;;;;;;;;;5103353;28;20083;-62
2022/03/30 11:03:13;;;;;;;2.05;1.27;;;;;;;;;;5113214;28;20047;-62
2022/03/30 11:05:40;;;;;;;6.03;0.80;;;;;;;;;;5095434;28;20642;-63
2022/03/30 11:08:07;;;;;;;4.72;1.20;;;;;;;;;;5100703;28;20067;-62
2022/03/30 11:10:47;;;;;;;4.05;1.20;;;;;;;;;;5086515;28;20080;-63
2022/03/30 11:13:13;;;;;;;1.92;0.60;;;;;;;;;;5091082;28;20074;-63
2022/03/30 11:16:00;;;;;;;4.20;1.08;;;;;;;;;;5089023;28;20397;-63
2022/03/30 11:18:30;;;;;;;6.68;0.82;;;;;;;;;;5102340;28;20044;-63
2022/03/30 11:21:09;;;;;;;6.13;0.77;;;;;;;;;;5106171;28;20050;-63
2022/03/30 11:23:36;;;;;;;3.30;1.10;;;;;;;;;;5106199;28;20059;-63
2022/03/30 11:26:02;;;;;;;4.68;0.82;;;;;;;;;;5102465;28;20040;-63
2022/03/30 11:28:35;;;;;;;5.00;0.95;;;;;;;;;;5103553;28;20048;-64
2022/03/30 11:31:03;;;;;;;5.45;1.50;;;;;;;;;;5097618;28;20062;-63
2022/03/30 11:33:32;;;;;;;3.08;0.93;;;;;;;;;;5096965;28;20045;-64
2022/03/30 11:36:00;;;;;;;4.95;0.98;;;;;;;;;;5083754;28;20044;-64
2022/03/30 11:38:28;;;;;;;2.85;0.93;;;;;;;;;;5084399;28;20537;-64
2022/03/30 11:41:06;;;;;;;4.85;1.30;;;;;;;;;;5083513;28;20045;-63
2022/03/30 11:45:12;;;;;;;4.38;0.70;;;;;;;;;;5083055;28;20546;-64
2022/03/30 11:46:22;;;;;;;5.15;1.15;;;;;;;;;;5085117;28;20047;-63
2022/03/30 11:48:48;;;;;;;3.92;1.15;;;;;;;;;;5083419;28;20087;-63
2022/03/30 11:51:15;;;;;;;4.15;0.82;;;;;;;;;;5093192;28;20109;-63
2022/03/30 11:53:42;;;;;;;3.92;1.00;;;;;;;;;;5096124;28;20131;-64
2022/03/30 11:56:09;;;;;;;3.83;1.20;;;;;;;;;;5096541;28;20044;-63
2022/03/30 11:58:39;;;;;;;4.00;0.85;;;;;;;;;;5100480;28;20044;-64
2022/03/30 12:01:24;;;;;;;2.13;0.73;;;;;;;;;;5092576;28;20056;-67
2022/03/30 12:03:54;;;;;;;3.15;0.93;;;;;;;;;;5098617;28;20083;-64
2022/03/30 12:06:20;;;;;;;2.50;0.70;;;;;;;;;;5096610;28;20044;-64
2022/03/30 12:08:52;;;;;;;3.35;0.82;;;;;;;;;;5099978;28;20063;-64
2022/03/30 12:11:19;;;;;;;2.22;0.68;;;;;;;;;;5097770;28;20056;-64
2022/03/30 12:13:50;;;;;;;7.68;1.20;;;;;;;;;;5104723;28;20044;-64
2022/03/30 12:16:16;;;;;;;2.03;0.60;;;;;;;;;;5110589;28;20043;-64
2022/03/30 12:18:44;;;;;;;6.00;0.52;;;;;;;;;;5090011;28;20080;-64
2022/03/30 12:21:13;;;;;;;7.30;1.38;;;;;;;;;;5097718;28;20051;-64
2022/03/30 12:23:49;;;;;;;7.45;1.40;;;;;;;;;;5094379;28;20097;-64
2022/03/30 12:26:16;;;;;;;10.23;2.05;;;;;;;;;;5096408;28;20116;-64
2022/03/30 12:28:42;;;;;;;3.25;0.85;;;;;;;;;;5094518;28;20044;-64
2022/03/30 12:31:10;;;;;;;5.13;1.00;;;;;;;;;;5100182;28;20061;-65
2022/03/30 12:33:47;;;;;;;4.80;1.23;;;;;;;;;;5094462;28;20503;-64
2022/03/30 12:36:14;;;;;;;6.43;1.15;;;;;;;;;;5089393;28;20520;-64
2022/03/30 12:38:40;;;;;;;4.43;1.00;;;;;;;;;;5099197;28;20072;-64
2022/03/30 12:41:06;;;;;;;1.65;0.68;;;;;;;;;;5096432;28;20044;-64
2022/03/30 12:43:33;;;;;;;4.05;1.00;;;;;;;;;;5100294;28;20056;-63
2022/03/30 12:46:03;;;;;;;2.30;0.50;;;;;;;;;;5100554;28;20048;-63
2022/03/30 12:48:32;;;;;;;4.35;0.80;;;;;;;;;;5096520;28;20055;-62
2022/03/30 12:51:00;;;;;;;2.50;0.80;;;;;;;;;;5092639;28;20083;-63
2022/03/30 12:53:33;;;;;;;12.05;1.08;;;;;;;;;;5095002;28;20086;-63
2022/03/30 12:56:17;;;;;;;8.20;1.70;;;;;;;;;;5088907;28;20028;-64
2022/03/30 12:58:51;;;;;;;5.00;0.77;;;;;;;;;;5090800;28;20079;-64
2022/03/30 13:01:35;;;;;;;2.35;1.10;;;;;;;;;;5101469;28;20123;-64
2022/03/30 13:04:02;;;;;;;4.50;0.98;;;;;;;;;;5088586;28;20596;-64
2022/03/30 13:06:29;;;;;;;3.95;0.47;;;;;;;;;;5099753;28;20051;-63
2022/03/30 13:09:07;;;;;;;5.28;1.08;;;;;;;;;;5105679;28;20055;-63
2022/03/30 13:11:40;;;;;;;13.82;1.98;;;;;;;;;;5102690;28;20060;-62
2022/03/30 13:14:10;;;;;;;3.28;0.90;;;;;;;;;;5092551;28;20048;-63
2022/03/30 13:16:37;;;;;;;0.95;0.40;;;;;;;;;;5096991;28;20071;-63
2022/03/30 13:19:04;;;;;;;2.60;0.80;;;;;;;;;;5099418;28;20040;-63
2022/03/30 13:21:56;;;;;;;1.40;0.70;;;;;;;;;;5089506;28;20052;-63
2022/03/30 13:24:24;;;;;;;3.13;0.82;;;;;;;;;;5090087;28;20041;-63
2022/03/30 13:26:54;;;;;;;5.97;1.10;;;;;;;;;;5100487;28;20052;-63
2022/03/30 13:29:20;;;;;;;4.25;0.98;;;;;;;;;;5096344;28;20051;-63
2022/03/30 13:31:46;;;;;;;4.82;0.77;;;;;;;;;;5097591;28;20093;-63
2022/03/30 13:34:16;;;;;;;3.05;1.08;;;;;;;;;;5092225;28;20112;-63
2022/03/30 13:36:46;;;;;;;3.97;1.90;;;;;;;;;;5097900;28;20067;-64
2022/03/30 13:39:13;;;;;;;2.33;1.23;;;;;;;;;;5094732;28;20059;-63
2022/03/30 13:41:39;;;;;;;6.70;1.27;;;;;;;;;;5094248;28;20044;-64
2022/03/30 13:44:06;;;;;;;6.10;1.17;;;;;;;;;;5092043;28;20722;-63
2022/03/30 13:46:32;;;;;;;4.03;0.90;;;;;;;;;;5093425;28;20040;-64
2022/03/30 13:48:59;;;;;;;3.58;0.60;;;;;;;;;;5090436;28;20396;-63
2022/03/30 13:51:25;;;;;;;6.85;1.23;;;;;;;;;;5095783;28;20060;-63
2022/03/30 13:53:51;;;;;;;1.80;0.75;;;;;;;;;;5098375;28;20062;-63
2022/03/30 13:56:17;;;;;;;5.03;0.90;;;;;;;;;;5093924;28;20052;-63
2022/03/30 13:58:44;;;;;;;4.07;1.02;;;;;;;;;;5095412;28;20412;-63
2022/03/30 14:01:11;;;;;;;5.20;1.17;;;;;;;;;;5093544;28;20115;-63
2022/03/30 14:03:38;;;;;;;6.05;1.45;;;;;;;;;;5099497;28;20495;-64
2022/03/30 14:06:05;;;;;;;2.78;1.23;;;;;;;;;;5090967;28;20037;-64
2022/03/30 14:08:31;;;;;;;4.45;1.15;;;;;;;;;;5102537;28;20044;-63
2022/03/30 14:10:58;;;;;;;4.30;1.00;;;;;;;;;;5096214;28;20116;-63
2022/03/30 14:13:24;;;;;;;2.30;0.93;;;;;;;;;;5090562;28;20489;-64
2022/03/30 14:15:50;;;;;;;6.55;0.82;;;;;;;;;;5101762;28;20048;-63
2022/03/30 14:18:17;;;;;;;4.32;0.90;;;;;;;;;;5102516;28;20093;-64
2022/03/30 14:20:43;;;;;;;7.32;1.42;;;;;;;;;;5097233;28;20048;-62
2022/03/30 14:23:10;;;;;;;5.38;1.10;;;;;;;;;;5100237;28;20133;-63
2022/03/30 14:25:37;;;;;;;5.20;1.20;;;;;;;;;;5089139;28;20052;-64
2022/03/30 14:28:04;;;;;;;7.20;1.10;;;;;;;;;;5089764;28;20098;-63
2022/03/30 14:30:33;;;;;;;7.05;1.50;;;;;;;;;;5100196;28;20127;-63
2022/03/30 14:33:01;;;;;;;6.90;0.88;;;;;;;;;;5090681;28;20134;-63
2022/03/30 14:35:29;;;;;;;;;;;;;;;;;;5092391;28;20140;-63
2022/03/30 14:37:56;;;;;;;3.17;1.42;;;;;;;;;;5103624;28;19930;-63
2022/03/30 14:40:22;;;;;;;6.55;1.45;;;;;;;;;;5103585;28;20032;-63
2022/03/30 14:42:48;;;;;;;6.20;1.25;;;;;;;;;;5094858;28;20327;-63
2022/03/30 14:45:15;;;;;;;3.08;1.00;;;;;;;;;;5100572;28;20052;-63
2022/03/30 14:47:41;;;;;;;4.00;1.02;;;;;;;;;;5096663;28;20052;-63
2022/03/30 14:50:09;;;;;;;5.88;1.27;;;;;;;;;;5099838;28;20045;-64
2022/03/30 14:52:36;;;;;;;8.45;1.40;;;;;;;;;;5090951;28;20511;-63
2022/03/30 14:55:02;;;;;;;5.22;1.00;;;;;;;;;;5095506;28;20048;-63
2022/03/30 14:57:29;;;;;;;4.50;1.08;;;;;;;;;;5100528;28;20051;-63